sensor_id;sensor_type;location;lat;lon;timestamp;P1;durP1;ratioP1;P2;durP2;ratioP2
55372;SDS011;70018;47.838;16.490;2023-05-29T00:01:13;8.75;;;3.72;;
55372;SDS011;70018;47.838;16.490;2023-05-29T00:03:39;8.48;;;3.63;;
55372;SDS011;70018;47.838;16.490;2023-05-29T00:06:06;7.30;;;3.40;;
55372;SDS011;70018;47.838;16.490;2023-05-29T00:08:33;5.70;;;3.42;;
55372;SDS011;70018;47.838;16.490;2023-05-29T00:11:00;7.43;;;3.40;;
55372;SDS011;70018;47.838;16.490;2023-05-29T00:13:26;6.28;;;3.80;;
55372;SDS011;70018;47.838;16.490;2023-05-29T00:15:53;11.32;;;4.20;;
55372;SDS011;70018;47.838;16.490;2023-05-29T00:18:20;7.93;;;3.72;;
55372;SDS011;70018;47.838;16.490;2023-05-29T00:20:47;6.60;;;4.10;;
55372;SDS011;70018;47.838;16.490;2023-05-29T00:23:14;8.75;;;3.78;;
55372;SDS011;70018;47.838;16.490;2023-05-29T00:25:40;5.13;;;2.63;;
55372;SDS011;70018;47.838;16.490;2023-05-29T00:28:07;5.25;;;2.80;;
55372;SDS011;70018;47.838;16.490;2023-05-29T00:30:35;7.75;;;3.03;;
55372;SDS011;70018;47.838;16.490;2023-05-29T00:33:01;5.85;;;2.75;;
55372;SDS011;70018;47.838;16.490;2023-05-29T00:35:28;4.20;;;2.50;;
55372;SDS011;70018;47.838;16.490;2023-05-29T00:37:55;5.07;;;2.78;;
55372;SDS011;70018;47.838;16.490;2023-05-29T00:40:35;5.35;;;2.88;;
55372;SDS011;70018;47.838;16.490;2023-05-29T00:43:02;7.82;;;2.97;;
55372;SDS011;70018;47.838;16.490;2023-05-29T00:45:43;5.00;;;3.17;;
55372;SDS011;70018;47.838;16.490;2023-05-29T00:48:09;6.32;;;2.05;;
55372;SDS011;70018;47.838;16.490;2023-05-29T00:50:36;7.47;;;3.05;;
55372;SDS011;70018;47.838;16.490;2023-05-29T00:53:03;3.92;;;2.53;;
55372;SDS011;70018;47.838;16.490;2023-05-29T00:55:31;4.93;;;3.05;;
55372;SDS011;70018;47.838;16.490;2023-05-29T00:57:57;7.07;;;3.38;;
55372;SDS011;70018;47.838;16.490;2023-05-29T01:00:26;5.00;;;3.00;;
55372;SDS011;70018;47.838;16.490;2023-05-29T01:02:52;7.28;;;3.13;;
55372;SDS011;70018;47.838;16.490;2023-05-29T01:05:19;6.50;;;3.28;;
55372;SDS011;70018;47.838;16.490;2023-05-29T01:07:46;4.88;;;2.55;;
55372;SDS011;70018;47.838;16.490;2023-05-29T01:10:12;5.63;;;2.95;;
55372;SDS011;70018;47.838;16.490;2023-05-29T01:12:40;5.40;;;2.55;;
55372;SDS011;70018;47.838;16.490;2023-05-29T01:18:08;5.68;;;3.00;;
55372;SDS011;70018;47.838;16.490;2023-05-29T01:20:49;3.72;;;2.60;;
55372;SDS011;70018;47.838;16.490;2023-05-29T01:29:16;8.43;;;2.85;;
55372;SDS011;70018;47.838;16.490;2023-05-29T01:31:46;3.00;;;2.05;;
55372;SDS011;70018;47.838;16.490;2023-05-29T01:34:14;3.95;;;1.85;;
55372;SDS011;70018;47.838;16.490;2023-05-29T01:36:41;5.10;;;2.47;;
55372;SDS011;70018;47.838;16.490;2023-05-29T01:39:08;5.22;;;1.95;;
55372;SDS011;70018;47.838;16.490;2023-05-29T01:41:35;6.75;;;1.98;;
55372;SDS011;70018;47.838;16.490;2023-05-29T01:44:04;2.75;;;1.55;;
55372;SDS011;70018;47.838;16.490;2023-05-29T01:46:37;5.60;;;2.30;;
55372;SDS011;70018;47.838;16.490;2023-05-29T01:49:05;4.20;;;2.15;;
55372;SDS011;70018;47.838;16.490;2023-05-29T01:51:33;3.30;;;2.33;;
55372;SDS011;70018;47.838;16.490;2023-05-29T01:54:01;3.85;;;2.17;;
55372;SDS011;70018;47.838;16.490;2023-05-29T01:56:43;6.63;;;2.50;;
55372;SDS011;70018;47.838;16.490;2023-05-29T01:59:10;3.05;;;2.25;;
55372;SDS011;70018;47.838;16.490;2023-05-29T02:01:39;4.28;;;2.30;;
55372;SDS011;70018;47.838;16.490;2023-05-29T02:04:06;4.28;;;2.50;;
55372;SDS011;70018;47.838;16.490;2023-05-29T02:06:33;7.07;;;2.40;;
55372;SDS011;70018;47.838;16.490;2023-05-29T02:09:00;4.63;;;2.55;;
55372;SDS011;70018;47.838;16.490;2023-05-29T02:11:27;5.10;;;2.70;;
55372;SDS011;70018;47.838;16.490;2023-05-29T02:13:53;4.05;;;2.53;;
55372;SDS011;70018;47.838;16.490;2023-05-29T02:16:20;5.00;;;2.20;;
55372;SDS011;70018;47.838;16.490;2023-05-29T02:18:47;5.28;;;2.65;;
55372;SDS011;70018;47.838;16.490;2023-05-29T02:21:14;4.97;;;2.50;;
55372;SDS011;70018;47.838;16.490;2023-05-29T02:23:41;3.25;;;2.35;;
55372;SDS011;70018;47.838;16.490;2023-05-29T02:26:07;4.82;;;2.85;;
55372;SDS011;70018;47.838;16.490;2023-05-29T02:28:34;4.78;;;2.75;;
55372;SDS011;70018;47.838;16.490;2023-05-29T02:31:02;4.47;;;2.45;;
55372;SDS011;70018;47.838;16.490;2023-05-29T02:33:29;5.65;;;2.67;;
55372;SDS011;70018;47.838;16.490;2023-05-29T02:35:56;3.90;;;2.10;;
55372;SDS011;70018;47.838;16.490;2023-05-29T02:38:22;2.50;;;1.60;;
55372;SDS011;70018;47.838;16.490;2023-05-29T02:40:49;3.45;;;2.08;;
55372;SDS011;70018;47.838;16.490;2023-05-29T02:43:16;5.38;;;2.60;;
55372;SDS011;70018;47.838;16.490;2023-05-29T02:45:43;3.92;;;1.90;;
55372;SDS011;70018;47.838;16.490;2023-05-29T02:48:09;3.85;;;2.03;;
55372;SDS011;70018;47.838;16.490;2023-05-29T02:50:36;2.83;;;2.30;;
55372;SDS011;70018;47.838;16.490;2023-05-29T02:53:03;5.53;;;2.63;;
55372;SDS011;70018;47.838;16.490;2023-05-29T02:55:29;5.18;;;2.70;;
55372;SDS011;70018;47.838;16.490;2023-05-29T02:57:58;5.38;;;2.15;;
55372;SDS011;70018;47.838;16.490;2023-05-29T03:00:26;5.80;;;2.92;;
55372;SDS011;70018;47.838;16.490;2023-05-29T03:02:54;6.03;;;2.47;;
55372;SDS011;70018;47.838;16.490;2023-05-29T03:05:21;6.30;;;3.00;;
55372;SDS011;70018;47.838;16.490;2023-05-29T03:07:48;5.63;;;2.35;;
55372;SDS011;70018;47.838;16.490;2023-05-29T03:10:14;5.60;;;2.67;;
55372;SDS011;70018;47.838;16.490;2023-05-29T03:12:44;3.72;;;2.58;;
55372;SDS011;70018;47.838;16.490;2023-05-29T03:15:11;4.00;;;2.20;;
55372;SDS011;70018;47.838;16.490;2023-05-29T03:17:38;6.88;;;3.50;;
55372;SDS011;70018;47.838;16.490;2023-05-29T03:20:05;3.95;;;1.95;;
55372;SDS011;70018;47.838;16.490;2023-05-29T03:22:32;5.18;;;2.25;;
55372;SDS011;70018;47.838;16.490;2023-05-29T03:24:59;4.80;;;3.00;;
55372;SDS011;70018;47.838;16.490;2023-05-29T03:27:25;4.28;;;2.58;;
55372;SDS011;70018;47.838;16.490;2023-05-29T03:30:21;5.60;;;2.80;;
55372;SDS011;70018;47.838;16.490;2023-05-29T03:32:48;3.72;;;2.22;;
55372;SDS011;70018;47.838;16.490;2023-05-29T03:35:14;4.85;;;2.80;;
55372;SDS011;70018;47.838;16.490;2023-05-29T03:37:41;6.88;;;2.58;;
55372;SDS011;70018;47.838;16.490;2023-05-29T03:40:07;4.18;;;2.33;;
55372;SDS011;70018;47.838;16.490;2023-05-29T03:42:35;3.95;;;2.22;;
55372;SDS011;70018;47.838;16.490;2023-05-29T03:45:18;4.13;;;2.50;;
55372;SDS011;70018;47.838;16.490;2023-05-29T03:47:45;4.13;;;2.10;;
55372;SDS011;70018;47.838;16.490;2023-05-29T03:50:12;3.80;;;2.42;;
55372;SDS011;70018;47.838;16.490;2023-05-29T03:52:55;3.92;;;2.08;;
55372;SDS011;70018;47.838;16.490;2023-05-29T03:55:22;4.15;;;2.20;;
55372;SDS011;70018;47.838;16.490;2023-05-29T03:57:49;3.53;;;2.05;;
55372;SDS011;70018;47.838;16.490;2023-05-29T04:00:31;5.32;;;2.50;;
55372;SDS011;70018;47.838;16.490;2023-05-29T04:02:57;3.95;;;2.15;;
55372;SDS011;70018;47.838;16.490;2023-05-29T04:05:24;4.40;;;2.10;;
55372;SDS011;70018;47.838;16.490;2023-05-29T04:08:05;5.93;;;2.20;;
55372;SDS011;70018;47.838;16.490;2023-05-29T04:10:39;4.60;;;2.60;;
55372;SDS011;70018;47.838;16.490;2023-05-29T04:13:06;4.68;;;2.85;;
55372;SDS011;70018;47.838;16.490;2023-05-29T04:15:33;4.35;;;2.45;;
55372;SDS011;70018;47.838;16.490;2023-05-29T04:18:00;5.47;;;3.00;;
55372;SDS011;70018;47.838;16.490;2023-05-29T04:20:27;8.20;;;2.75;;
55372;SDS011;70018;47.838;16.490;2023-05-29T04:22:54;4.10;;;2.50;;
55372;SDS011;70018;47.838;16.490;2023-05-29T04:25:20;5.72;;;2.97;;
55372;SDS011;70018;47.838;16.490;2023-05-29T04:27:47;5.18;;;2.35;;
55372;SDS011;70018;47.838;16.490;2023-05-29T04:30:15;4.53;;;2.40;;
55372;SDS011;70018;47.838;16.490;2023-05-29T04:32:42;7.30;;;2.80;;
55372;SDS011;70018;47.838;16.490;2023-05-29T04:35:09;6.40;;;3.42;;
55372;SDS011;70018;47.838;16.490;2023-05-29T04:37:36;5.55;;;2.88;;
55372;SDS011;70018;47.838;16.490;2023-05-29T04:40:05;4.93;;;3.00;;
55372;SDS011;70018;47.838;16.490;2023-05-29T04:45:06;6.78;;;3.13;;
55372;SDS011;70018;47.838;16.490;2023-05-29T04:47:33;5.20;;;2.65;;
55372;SDS011;70018;47.838;16.490;2023-05-29T04:50:00;4.95;;;2.83;;
55372;SDS011;70018;47.838;16.490;2023-05-29T04:52:27;6.18;;;3.67;;
55372;SDS011;70018;47.838;16.490;2023-05-29T04:54:54;7.03;;;3.28;;
55372;SDS011;70018;47.838;16.490;2023-05-29T04:57:21;6.50;;;3.05;;
55372;SDS011;70018;47.838;16.490;2023-05-29T04:59:47;5.22;;;2.95;;
55372;SDS011;70018;47.838;16.490;2023-05-29T05:02:14;6.15;;;3.08;;
55372;SDS011;70018;47.838;16.490;2023-05-29T05:04:41;4.57;;;3.10;;
55372;SDS011;70018;47.838;16.490;2023-05-29T05:07:08;5.47;;;2.50;;
55372;SDS011;70018;47.838;16.490;2023-05-29T05:09:35;4.53;;;3.00;;
55372;SDS011;70018;47.838;16.490;2023-05-29T05:12:02;5.13;;;2.88;;
55372;SDS011;70018;47.838;16.490;2023-05-29T05:14:29;4.00;;;2.50;;
55372;SDS011;70018;47.838;16.490;2023-05-29T05:16:56;6.00;;;2.75;;
55372;SDS011;70018;47.838;16.490;2023-05-29T05:19:22;6.82;;;3.22;;
55372;SDS011;70018;47.838;16.490;2023-05-29T05:21:49;6.20;;;3.13;;
55372;SDS011;70018;47.838;16.490;2023-05-29T05:24:18;5.85;;;2.38;;
55372;SDS011;70018;47.838;16.490;2023-05-29T05:26:44;5.13;;;2.60;;
55372;SDS011;70018;47.838;16.490;2023-05-29T05:29:11;6.80;;;1.95;;
55372;SDS011;70018;47.838;16.490;2023-05-29T05:31:37;3.70;;;2.42;;
55372;SDS011;70018;47.838;16.490;2023-05-29T05:34:04;5.25;;;2.42;;
55372;SDS011;70018;47.838;16.490;2023-05-29T05:36:31;5.32;;;2.60;;
55372;SDS011;70018;47.838;16.490;2023-05-29T05:38:59;3.78;;;2.10;;
55372;SDS011;70018;47.838;16.490;2023-05-29T05:41:25;2.90;;;1.63;;
55372;SDS011;70018;47.838;16.490;2023-05-29T05:43:53;3.55;;;1.83;;
55372;SDS011;70018;47.838;16.490;2023-05-29T05:46:19;3.58;;;1.77;;
55372;SDS011;70018;47.838;16.490;2023-05-29T05:48:46;3.40;;;1.70;;
55372;SDS011;70018;47.838;16.490;2023-05-29T05:51:12;2.65;;;1.58;;
55372;SDS011;70018;47.838;16.490;2023-05-29T05:53:39;5.50;;;2.40;;
55372;SDS011;70018;47.838;16.490;2023-05-29T05:56:06;6.93;;;1.35;;
55372;SDS011;70018;47.838;16.490;2023-05-29T05:58:32;3.30;;;1.92;;
55372;SDS011;70018;47.838;16.490;2023-05-29T06:00:59;2.42;;;1.70;;
55372;SDS011;70018;47.838;16.490;2023-05-29T06:03:27;2.80;;;2.08;;
55372;SDS011;70018;47.838;16.490;2023-05-29T06:05:54;2.28;;;1.50;;
55372;SDS011;70018;47.838;16.490;2023-05-29T06:08:21;3.35;;;1.58;;
55372;SDS011;70018;47.838;16.490;2023-05-29T06:10:48;9.85;;;3.28;;
55372;SDS011;70018;47.838;16.490;2023-05-29T06:13:15;4.25;;;2.38;;
55372;SDS011;70018;47.838;16.490;2023-05-29T06:15:43;4.80;;;2.17;;
55372;SDS011;70018;47.838;16.490;2023-05-29T06:18:10;3.58;;;1.95;;
55372;SDS011;70018;47.838;16.490;2023-05-29T06:20:37;3.22;;;1.88;;
55372;SDS011;70018;47.838;16.490;2023-05-29T06:23:04;5.75;;;1.95;;
55372;SDS011;70018;47.838;16.490;2023-05-29T06:25:30;9.13;;;2.40;;
55372;SDS011;70018;47.838;16.490;2023-05-29T06:28:00;6.03;;;2.38;;
55372;SDS011;70018;47.838;16.490;2023-05-29T06:30:27;3.08;;;1.90;;
55372;SDS011;70018;47.838;16.490;2023-05-29T06:32:54;5.93;;;2.03;;
55372;SDS011;70018;47.838;16.490;2023-05-29T06:35:21;3.85;;;1.80;;
55372;SDS011;70018;47.838;16.490;2023-05-29T06:37:47;5.75;;;2.05;;
55372;SDS011;70018;47.838;16.490;2023-05-29T06:40:34;3.47;;;2.00;;
55372;SDS011;70018;47.838;16.490;2023-05-29T06:43:01;4.32;;;2.22;;
55372;SDS011;70018;47.838;16.490;2023-05-29T06:45:27;4.55;;;2.15;;
55372;SDS011;70018;47.838;16.490;2023-05-29T06:47:54;4.47;;;2.78;;
55372;SDS011;70018;47.838;16.490;2023-05-29T06:50:22;3.88;;;2.30;;
55372;SDS011;70018;47.838;16.490;2023-05-29T06:52:48;3.03;;;2.22;;
55372;SDS011;70018;47.838;16.490;2023-05-29T06:55:15;4.18;;;1.98;;
55372;SDS011;70018;47.838;16.490;2023-05-29T06:57:42;2.70;;;1.60;;
55372;SDS011;70018;47.838;16.490;2023-05-29T07:00:26;3.88;;;1.65;;
55372;SDS011;70018;47.838;16.490;2023-05-29T07:02:53;3.20;;;1.38;;
55372;SDS011;70018;47.838;16.490;2023-05-29T07:05:20;3.40;;;1.73;;
55372;SDS011;70018;47.838;16.490;2023-05-29T07:07:46;3.55;;;1.83;;
55372;SDS011;70018;47.838;16.490;2023-05-29T07:10:13;5.57;;;1.60;;
55372;SDS011;70018;47.838;16.490;2023-05-29T07:12:40;3.33;;;1.67;;
55372;SDS011;70018;47.838;16.490;2023-05-29T07:15:06;7.43;;;1.92;;
55372;SDS011;70018;47.838;16.490;2023-05-29T07:17:33;7.05;;;1.92;;
55372;SDS011;70018;47.838;16.490;2023-05-29T07:20:00;2.42;;;1.63;;
55372;SDS011;70018;47.838;16.490;2023-05-29T07:22:27;4.05;;;1.77;;
55372;SDS011;70018;47.838;16.490;2023-05-29T07:24:54;3.42;;;1.98;;
55372;SDS011;70018;47.838;16.490;2023-05-29T07:27:21;2.65;;;1.58;;
55372;SDS011;70018;47.838;16.490;2023-05-29T07:29:47;4.93;;;2.40;;
55372;SDS011;70018;47.838;16.490;2023-05-29T07:32:15;4.72;;;1.80;;
55372;SDS011;70018;47.838;16.490;2023-05-29T07:34:42;2.88;;;1.75;;
55372;SDS011;70018;47.838;16.490;2023-05-29T07:37:11;3.53;;;2.03;;
55372;SDS011;70018;47.838;16.490;2023-05-29T07:39:38;5.45;;;1.88;;
55372;SDS011;70018;47.838;16.490;2023-05-29T07:42:05;2.90;;;1.60;;
55372;SDS011;70018;47.838;16.490;2023-05-29T07:44:32;4.10;;;1.60;;
55372;SDS011;70018;47.838;16.490;2023-05-29T07:46:59;3.38;;;1.48;;
55372;SDS011;70018;47.838;16.490;2023-05-29T07:49:26;5.45;;;2.03;;
55372;SDS011;70018;47.838;16.490;2023-05-29T07:51:53;2.58;;;1.88;;
55372;SDS011;70018;47.838;16.490;2023-05-29T07:54:20;6.15;;;2.08;;
55372;SDS011;70018;47.838;16.490;2023-05-29T07:56:47;5.35;;;2.40;;
55372;SDS011;70018;47.838;16.490;2023-05-29T07:59:14;3.45;;;1.90;;
55372;SDS011;70018;47.838;16.490;2023-05-29T08:01:41;5.60;;;1.80;;
55372;SDS011;70018;47.838;16.490;2023-05-29T08:04:07;4.20;;;2.13;;
55372;SDS011;70018;47.838;16.490;2023-05-29T08:06:34;4.03;;;2.20;;
55372;SDS011;70018;47.838;16.490;2023-05-29T08:09:01;2.53;;;1.73;;
55372;SDS011;70018;47.838;16.490;2023-05-29T08:11:29;3.45;;;2.03;;
55372;SDS011;70018;47.838;16.490;2023-05-29T08:13:56;8.23;;;2.47;;
55372;SDS011;70018;47.838;16.490;2023-05-29T08:16:22;3.50;;;2.40;;
55372;SDS011;70018;47.838;16.490;2023-05-29T08:18:49;5.18;;;2.33;;
55372;SDS011;70018;47.838;16.490;2023-05-29T08:21:16;4.55;;;2.05;;
55372;SDS011;70018;47.838;16.490;2023-05-29T08:23:42;5.25;;;2.20;;
55372;SDS011;70018;47.838;16.490;2023-05-29T08:26:09;6.60;;;2.30;;
55372;SDS011;70018;47.838;16.490;2023-05-29T08:28:36;6.43;;;2.85;;
55372;SDS011;70018;47.838;16.490;2023-05-29T08:31:05;4.18;;;1.92;;
55372;SDS011;70018;47.838;16.490;2023-05-29T08:33:31;3.83;;;2.35;;
55372;SDS011;70018;47.838;16.490;2023-05-29T08:35:58;3.95;;;2.28;;
55372;SDS011;70018;47.838;16.490;2023-05-29T08:38:26;4.57;;;2.30;;
55372;SDS011;70018;47.838;16.490;2023-05-29T08:40:54;4.60;;;2.33;;
55372;SDS011;70018;47.838;16.490;2023-05-29T08:43:23;2.47;;;1.70;;
55372;SDS011;70018;47.838;16.490;2023-05-29T08:45:54;3.67;;;2.25;;
55372;SDS011;70018;47.838;16.490;2023-05-29T08:48:23;6.30;;;3.00;;
55372;SDS011;70018;47.838;16.490;2023-05-29T08:50:54;4.82;;;2.35;;
55372;SDS011;70018;47.838;16.490;2023-05-29T08:53:22;5.03;;;2.38;;
55372;SDS011;70018;47.838;16.490;2023-05-29T08:55:49;5.10;;;2.20;;
55372;SDS011;70018;47.838;16.490;2023-05-29T08:58:18;5.15;;;2.20;;
55372;SDS011;70018;47.838;16.490;2023-05-29T09:00:48;6.13;;;2.40;;
55372;SDS011;70018;47.838;16.490;2023-05-29T09:03:15;3.40;;;2.28;;
55372;SDS011;70018;47.838;16.490;2023-05-29T09:05:42;4.22;;;2.20;;
55372;SDS011;70018;47.838;16.490;2023-05-29T09:08:10;4.63;;;2.58;;
55372;SDS011;70018;47.838;16.490;2023-05-29T09:10:39;6.78;;;2.70;;
55372;SDS011;70018;47.838;16.490;2023-05-29T09:13:07;3.92;;;2.42;;
55372;SDS011;70018;47.838;16.490;2023-05-29T09:15:36;3.90;;;2.28;;
55372;SDS011;70018;47.838;16.490;2023-05-29T09:18:05;6.47;;;2.60;;
55372;SDS011;70018;47.838;16.490;2023-05-29T09:20:32;4.65;;;2.55;;
55372;SDS011;70018;47.838;16.490;2023-05-29T09:23:00;7.53;;;2.53;;
55372;SDS011;70018;47.838;16.490;2023-05-29T09:25:32;6.90;;;2.60;;
55372;SDS011;70018;47.838;16.490;2023-05-29T09:28:05;4.32;;;2.17;;
55372;SDS011;70018;47.838;16.490;2023-05-29T09:33:04;10.02;;;2.70;;
55372;SDS011;70018;47.838;16.490;2023-05-29T09:35:34;7.13;;;2.03;;
55372;SDS011;70018;47.838;16.490;2023-05-29T09:38:02;6.20;;;2.38;;
55372;SDS011;70018;47.838;16.490;2023-05-29T09:40:30;3.45;;;1.98;;
55372;SDS011;70018;47.838;16.490;2023-05-29T09:43:14;4.95;;;2.50;;
55372;SDS011;70018;47.838;16.490;2023-05-29T09:45:46;3.97;;;2.70;;
55372;SDS011;70018;47.838;16.490;2023-05-29T09:48:23;4.90;;;2.60;;
55372;SDS011;70018;47.838;16.490;2023-05-29T09:50:50;7.53;;;2.30;;
55372;SDS011;70018;47.838;16.490;2023-05-29T09:53:24;3.10;;;2.00;;
55372;SDS011;70018;47.838;16.490;2023-05-29T09:55:52;4.55;;;2.80;;
55372;SDS011;70018;47.838;16.490;2023-05-29T09:58:21;5.78;;;2.20;;
55372;SDS011;70018;47.838;16.490;2023-05-29T10:00:49;3.83;;;2.05;;
55372;SDS011;70018;47.838;16.490;2023-05-29T10:03:18;4.28;;;2.65;;
55372;SDS011;70018;47.838;16.490;2023-05-29T10:05:52;5.40;;;2.28;;
55372;SDS011;70018;47.838;16.490;2023-05-29T10:08:23;7.78;;;2.22;;
55372;SDS011;70018;47.838;16.490;2023-05-29T10:10:58;3.40;;;1.88;;
55372;SDS011;70018;47.838;16.490;2023-05-29T10:13:39;4.38;;;2.15;;
55372;SDS011;70018;47.838;16.490;2023-05-29T10:16:09;4.47;;;2.22;;
55372;SDS011;70018;47.838;16.490;2023-05-29T10:18:44;3.70;;;2.00;;
55372;SDS011;70018;47.838;16.490;2023-05-29T10:21:15;6.95;;;2.53;;
55372;SDS011;70018;47.838;16.490;2023-05-29T10:23:45;5.70;;;2.40;;
55372;SDS011;70018;47.838;16.490;2023-05-29T10:26:15;5.53;;;2.13;;
55372;SDS011;70018;47.838;16.490;2023-05-29T10:37:47;5.47;;;2.20;;
55372;SDS011;70018;47.838;16.490;2023-05-29T10:40:24;6.70;;;2.30;;
55372;SDS011;70018;47.838;16.490;2023-05-29T10:42:53;3.15;;;1.70;;
55372;SDS011;70018;47.838;16.490;2023-05-29T10:50:41;4.55;;;1.98;;
55372;SDS011;70018;47.838;16.490;2023-05-29T10:53:09;5.07;;;2.50;;
55372;SDS011;70018;47.838;16.490;2023-05-29T10:55:37;4.43;;;1.80;;
55372;SDS011;70018;47.838;16.490;2023-05-29T10:58:05;4.88;;;2.17;;
55372;SDS011;70018;47.838;16.490;2023-05-29T11:00:32;3.90;;;2.28;;
55372;SDS011;70018;47.838;16.490;2023-05-29T11:03:03;6.10;;;2.30;;
55372;SDS011;70018;47.838;16.490;2023-05-29T11:05:30;3.85;;;2.72;;
55372;SDS011;70018;47.838;16.490;2023-05-29T11:07:57;8.80;;;2.90;;
55372;SDS011;70018;47.838;16.490;2023-05-29T11:13:52;8.05;;;3.10;;
55372;SDS011;70018;47.838;16.490;2023-05-29T11:18:52;9.45;;;3.28;;
55372;SDS011;70018;47.838;16.490;2023-05-29T11:21:41;4.75;;;2.83;;
55372;SDS011;70018;47.838;16.490;2023-05-29T11:24:14;7.18;;;2.50;;
55372;SDS011;70018;47.838;16.490;2023-05-29T11:26:48;4.45;;;2.00;;
55372;SDS011;70018;47.838;16.490;2023-05-29T11:29:20;5.22;;;2.33;;
55372;SDS011;70018;47.838;16.490;2023-05-29T11:32:01;4.60;;;2.30;;
55372;SDS011;70018;47.838;16.490;2023-05-29T11:34:30;4.10;;;1.90;;
55372;SDS011;70018;47.838;16.490;2023-05-29T11:36:59;4.80;;;2.60;;
55372;SDS011;70018;47.838;16.490;2023-05-29T11:39:26;3.58;;;1.83;;
55372;SDS011;70018;47.838;16.490;2023-05-29T11:41:54;7.55;;;2.50;;
55372;SDS011;70018;47.838;16.490;2023-05-29T11:44:24;2.95;;;1.67;;
55372;SDS011;70018;47.838;16.490;2023-05-29T11:47:05;4.93;;;2.30;;
55372;SDS011;70018;47.838;16.490;2023-05-29T11:49:34;3.60;;;2.20;;
55372;SDS011;70018;47.838;16.490;2023-05-29T11:52:09;3.60;;;2.35;;
55372;SDS011;70018;47.838;16.490;2023-05-29T11:54:41;6.50;;;2.60;;
55372;SDS011;70018;47.838;16.490;2023-05-29T11:57:20;5.35;;;2.80;;
55372;SDS011;70018;47.838;16.490;2023-05-29T11:59:49;3.30;;;2.17;;
55372;SDS011;70018;47.838;16.490;2023-05-29T12:02:18;7.32;;;2.90;;
55372;SDS011;70018;47.838;16.490;2023-05-29T12:04:59;3.15;;;2.15;;
55372;SDS011;70018;47.838;16.490;2023-05-29T12:07:30;3.40;;;2.22;;
55372;SDS011;70018;47.838;16.490;2023-05-29T12:10:07;3.85;;;2.10;;
55372;SDS011;70018;47.838;16.490;2023-05-29T12:12:38;6.45;;;2.22;;
55372;SDS011;70018;47.838;16.490;2023-05-29T12:15:06;2.72;;;1.83;;
55372;SDS011;70018;47.838;16.490;2023-05-29T12:17:34;7.15;;;2.50;;
55372;SDS011;70018;47.838;16.490;2023-05-29T12:20:03;4.65;;;2.75;;
55372;SDS011;70018;47.838;16.490;2023-05-29T12:22:33;6.03;;;2.70;;
55372;SDS011;70018;47.838;16.490;2023-05-29T12:27:40;4.05;;;2.25;;
55372;SDS011;70018;47.838;16.490;2023-05-29T12:32:54;4.70;;;2.00;;
55372;SDS011;70018;47.838;16.490;2023-05-29T12:35:24;2.92;;;1.60;;
55372;SDS011;70018;47.838;16.490;2023-05-29T12:37:54;2.83;;;1.75;;
55372;SDS011;70018;47.838;16.490;2023-05-29T12:40:23;3.60;;;2.42;;
55372;SDS011;70018;47.838;16.490;2023-05-29T12:42:55;2.10;;;1.52;;
55372;SDS011;70018;47.838;16.490;2023-05-29T12:45:30;2.95;;;2.08;;
55372;SDS011;70018;47.838;16.490;2023-05-29T12:47:59;4.22;;;2.15;;
55372;SDS011;70018;47.838;16.490;2023-05-29T12:50:33;3.00;;;1.88;;
55372;SDS011;70018;47.838;16.490;2023-05-29T12:55:34;6.82;;;2.40;;
55372;SDS011;70018;47.838;16.490;2023-05-29T12:58:06;4.28;;;1.75;;
55372;SDS011;70018;47.838;16.490;2023-05-29T13:00:34;3.55;;;1.90;;
55372;SDS011;70018;47.838;16.490;2023-05-29T13:03:02;3.55;;;2.28;;
55372;SDS011;70018;47.838;16.490;2023-05-29T13:05:29;2.75;;;1.83;;
55372;SDS011;70018;47.838;16.490;2023-05-29T13:07:56;2.65;;;1.80;;
55372;SDS011;70018;47.838;16.490;2023-05-29T13:10:24;3.58;;;1.85;;
55372;SDS011;70018;47.838;16.490;2023-05-29T13:12:51;3.58;;;2.20;;
55372;SDS011;70018;47.838;16.490;2023-05-29T13:15:21;2.30;;;1.52;;
55372;SDS011;70018;47.838;16.490;2023-05-29T13:17:49;5.57;;;2.08;;
55372;SDS011;70018;47.838;16.490;2023-05-29T13:20:17;5.03;;;1.98;;
55372;SDS011;70018;47.838;16.490;2023-05-29T13:22:44;3.60;;;2.17;;
55372;SDS011;70018;47.838;16.490;2023-05-29T13:25:13;4.13;;;2.08;;
55372;SDS011;70018;47.838;16.490;2023-05-29T13:27:42;5.28;;;1.85;;
55372;SDS011;70018;47.838;16.490;2023-05-29T13:30:11;4.88;;;2.25;;
55372;SDS011;70018;47.838;16.490;2023-05-29T13:32:39;4.80;;;2.28;;
55372;SDS011;70018;47.838;16.490;2023-05-29T13:35:07;4.10;;;2.55;;
55372;SDS011;70018;47.838;16.490;2023-05-29T13:37:35;3.42;;;1.98;;
55372;SDS011;70018;47.838;16.490;2023-05-29T13:40:03;6.75;;;2.63;;
55372;SDS011;70018;47.838;16.490;2023-05-29T13:42:31;5.40;;;2.28;;
55372;SDS011;70018;47.838;16.490;2023-05-29T13:44:58;6.50;;;2.70;;
55372;SDS011;70018;47.838;16.490;2023-05-29T13:47:25;4.47;;;2.50;;
55372;SDS011;70018;47.838;16.490;2023-05-29T13:49:55;4.15;;;2.80;;
55372;SDS011;70018;47.838;16.490;2023-05-29T13:52:22;4.93;;;2.47;;
55372;SDS011;70018;47.838;16.490;2023-05-29T13:54:49;4.57;;;2.40;;
55372;SDS011;70018;47.838;16.490;2023-05-29T13:57:15;7.35;;;2.20;;
55372;SDS011;70018;47.838;16.490;2023-05-29T13:59:42;3.42;;;2.10;;
55372;SDS011;70018;47.838;16.490;2023-05-29T14:02:08;5.20;;;2.40;;
55372;SDS011;70018;47.838;16.490;2023-05-29T14:04:35;3.38;;;1.98;;
55372;SDS011;70018;47.838;16.490;2023-05-29T14:07:02;4.63;;;2.22;;
55372;SDS011;70018;47.838;16.490;2023-05-29T14:09:29;4.07;;;2.10;;
55372;SDS011;70018;47.838;16.490;2023-05-29T14:11:56;5.88;;;2.25;;
55372;SDS011;70018;47.838;16.490;2023-05-29T14:14:25;4.88;;;2.17;;
55372;SDS011;70018;47.838;16.490;2023-05-29T14:16:52;7.97;;;2.40;;
55372;SDS011;70018;47.838;16.490;2023-05-29T14:19:21;3.45;;;2.42;;
55372;SDS011;70018;47.838;16.490;2023-05-29T14:21:48;3.03;;;1.83;;
55372;SDS011;70018;47.838;16.490;2023-05-29T14:24:16;7.70;;;2.28;;
55372;SDS011;70018;47.838;16.490;2023-05-29T14:26:44;3.03;;;2.03;;
55372;SDS011;70018;47.838;16.490;2023-05-29T14:29:14;4.22;;;2.10;;
55372;SDS011;70018;47.838;16.490;2023-05-29T14:31:41;5.47;;;1.90;;
55372;SDS011;70018;47.838;16.490;2023-05-29T14:34:10;4.82;;;1.70;;
55372;SDS011;70018;47.838;16.490;2023-05-29T14:36:37;7.15;;;2.47;;
55372;SDS011;70018;47.838;16.490;2023-05-29T14:39:05;4.57;;;2.20;;
55372;SDS011;70018;47.838;16.490;2023-05-29T14:41:32;3.25;;;1.90;;
55372;SDS011;70018;47.838;16.490;2023-05-29T14:44:01;4.22;;;2.58;;
55372;SDS011;70018;47.838;16.490;2023-05-29T14:46:28;4.68;;;2.20;;
55372;SDS011;70018;47.838;16.490;2023-05-29T14:48:58;3.00;;;2.10;;
55372;SDS011;70018;47.838;16.490;2023-05-29T14:51:26;4.63;;;1.90;;
55372;SDS011;70018;47.838;16.490;2023-05-29T14:53:53;3.50;;;2.38;;
55372;SDS011;70018;47.838;16.490;2023-05-29T14:56:21;3.42;;;2.08;;
55372;SDS011;70018;47.838;16.490;2023-05-29T14:58:48;3.40;;;1.67;;
55372;SDS011;70018;47.838;16.490;2023-05-29T15:01:15;3.50;;;2.30;;
55372;SDS011;70018;47.838;16.490;2023-05-29T15:03:42;4.57;;;2.50;;
55372;SDS011;70018;47.838;16.490;2023-05-29T15:06:10;4.50;;;2.50;;
55372;SDS011;70018;47.838;16.490;2023-05-29T15:08:40;5.15;;;2.55;;
55372;SDS011;70018;47.838;16.490;2023-05-29T15:11:10;4.22;;;2.42;;
55372;SDS011;70018;47.838;16.490;2023-05-29T15:13:39;2.95;;;1.90;;
55372;SDS011;70018;47.838;16.490;2023-05-29T15:16:06;3.95;;;2.53;;
55372;SDS011;70018;47.838;16.490;2023-05-29T15:18:33;2.63;;;1.63;;
55372;SDS011;70018;47.838;16.490;2023-05-29T15:21:00;2.70;;;1.60;;
55372;SDS011;70018;47.838;16.490;2023-05-29T15:23:27;3.67;;;2.13;;